createdAt,value
2018-11-12T00:00:44.937Z,12.70
2018-11-12T00:03:13.461Z,12.70
2018-11-12T00:05:42.000Z,12.70
2018-11-12T00:08:10.451Z,12.70
2018-11-12T00:10:39.061Z,12.80
2018-11-12T00:13:07.573Z,12.80
2018-11-12T00:15:36.051Z,12.80
2018-11-12T00:18:04.609Z,12.70
2018-11-12T00:20:33.125Z,12.60
2018-11-12T00:23:01.626Z,12.60
2018-11-12T00:25:30.345Z,12.40
2018-11-12T00:27:58.797Z,12.30
2018-11-12T00:30:27.788Z,12.30
2018-11-12T00:32:56.330Z,12.20
2018-11-12T00:35:24.845Z,12.10
2018-11-12T00:37:53.316Z,12.10
2018-11-12T00:40:21.925Z,12.10
2018-11-12T00:42:50.519Z,12.10
2018-11-12T00:45:18.986Z,12.00
2018-11-12T00:47:47.801Z,12.00
2018-11-12T00:50:16.564Z,12.00
2018-11-12T00:52:45.157Z,12.00
2018-11-12T00:55:14.801Z,11.90
2018-11-12T00:57:43.581Z,11.80
2018-11-12T01:00:14.489Z,11.90
2018-11-12T01:02:44.793Z,11.90
2018-11-12T01:05:13.548Z,11.80
2018-11-12T01:07:42.017Z,11.90
2018-11-12T01:10:12.936Z,11.90
2018-11-12T01:12:42.093Z,11.90
2018-11-12T01:15:12.361Z,11.90
2018-11-12T01:17:41.199Z,11.90
2018-11-12T01:20:10.960Z,11.90
2018-11-12T01:22:39.464Z,12.00
2018-11-12T01:25:08.961Z,11.90
2018-11-12T01:27:37.846Z,12.00
2018-11-12T01:30:15.621Z,12.00
2018-11-12T01:32:44.430Z,12.00
2018-11-12T01:35:14.007Z,12.10
2018-11-12T01:37:42.570Z,12.10
2018-11-12T01:40:12.230Z,12.10
2018-11-12T01:42:40.791Z,12.10
2018-11-12T01:45:13.511Z,12.10
2018-11-12T01:47:43.020Z,12.00
2018-11-12T01:50:12.381Z,12.00
2018-11-12T01:52:41.416Z,11.90
2018-11-12T01:55:11.309Z,11.90
2018-11-12T01:57:39.842Z,11.90
2018-11-12T02:00:11.791Z,11.90
2018-11-12T02:02:40.536Z,11.90
2018-11-12T02:05:09.483Z,11.90
2018-11-12T02:07:37.966Z,11.90
2018-11-12T02:10:07.992Z,11.90
2018-11-12T02:12:36.701Z,11.90
2018-11-12T02:15:07.516Z,11.90
2018-11-12T02:17:36.117Z,12.00
2018-11-12T02:20:05.760Z,12.10
2018-11-12T02:22:34.466Z,12.10
2018-11-12T02:25:02.989Z,12.00
2018-11-12T02:27:31.506Z,11.90
2018-11-12T02:30:00.142Z,11.90
2018-11-12T02:32:28.645Z,11.90
2018-11-12T02:34:57.141Z,11.90
2018-11-12T02:37:25.677Z,11.90
2018-11-12T02:39:54.181Z,11.70
2018-11-12T02:42:22.762Z,11.80
2018-11-12T02:44:51.327Z,11.80
2018-11-12T02:47:19.882Z,11.90
2018-11-12T02:49:48.413Z,11.90
2018-11-12T02:52:16.893Z,11.90
2018-11-12T02:54:45.594Z,12.00
2018-11-12T02:57:14.193Z,11.90
2018-11-12T02:59:42.743Z,11.90
2018-11-12T03:02:11.246Z,12.00
2018-11-12T03:04:39.782Z,12.00
2018-11-12T03:07:08.320Z,12.00
2018-11-12T03:09:36.803Z,11.90
2018-11-12T03:12:05.609Z,11.90
2018-11-12T03:14:34.143Z,11.80
2018-11-12T03:17:02.637Z,11.70
2018-11-12T03:19:31.194Z,11.70
2018-11-12T03:21:59.807Z,11.60
2018-11-12T03:24:28.379Z,11.70
2018-11-12T03:26:56.941Z,11.70
2018-11-12T03:29:25.439Z,11.70
2018-11-12T03:31:53.959Z,11.80
2018-11-12T03:34:22.447Z,11.80
2018-11-12T03:36:50.981Z,11.90
2018-11-12T03:39:19.473Z,11.90
2018-11-12T03:41:47.918Z,11.90
2018-11-12T03:44:16.493Z,12.00
2018-11-12T03:46:45.009Z,11.90
2018-11-12T03:49:13.545Z,11.80
2018-11-12T03:51:42.077Z,11.80
2018-11-12T03:54:10.614Z,11.90
2018-11-12T03:56:39.230Z,11.90
2018-11-12T03:59:07.753Z,11.90
2018-11-12T04:01:41.748Z,12.00
2018-11-12T04:04:10.230Z,12.10
2018-11-12T04:06:38.697Z,12.10
2018-11-12T04:09:10.332Z,12.10
2018-11-12T04:11:39.691Z,12.10
2018-11-12T04:14:09.137Z,12.10
2018-11-12T04:16:38.015Z,12.20
2018-11-12T04:19:06.747Z,12.20
2018-11-12T04:21:35.434Z,12.20
2018-11-12T04:24:04.096Z,12.20
2018-11-12T04:26:32.709Z,12.20
2018-11-12T04:29:01.704Z,12.20
2018-11-12T04:31:30.215Z,12.30
2018-11-12T04:33:59.197Z,12.30
2018-11-12T04:36:27.748Z,12.30
2018-11-12T04:38:56.553Z,12.30
2018-11-12T04:41:25.089Z,12.30
2018-11-12T04:43:53.561Z,12.40
2018-11-12T04:46:22.127Z,12.40
2018-11-12T04:48:50.697Z,12.50
2018-11-12T04:51:19.305Z,12.40
2018-11-12T04:53:47.865Z,12.30
2018-11-12T04:56:16.398Z,12.30
2018-11-12T04:58:44.969Z,12.30
2018-11-12T05:01:13.480Z,12.20
2018-11-12T05:03:42.038Z,12.20
2018-11-12T05:06:10.586Z,12.30
2018-11-12T05:08:39.118Z,12.30
2018-11-12T05:11:07.749Z,12.40
2018-11-12T05:13:36.314Z,12.40
2018-11-12T05:16:05.240Z,12.40
2018-11-12T05:18:33.833Z,12.40
2018-11-12T05:21:02.366Z,12.40
2018-11-12T05:23:30.877Z,12.40
2018-11-12T05:25:59.477Z,12.40
2018-11-12T05:28:28.076Z,12.40
2018-11-12T05:30:56.595Z,12.50
2018-11-12T05:33:25.129Z,12.50
2018-11-12T05:35:53.645Z,12.40
2018-11-12T05:38:22.273Z,12.50
2018-11-12T05:40:50.767Z,12.40
2018-11-12T05:43:19.324Z,12.50
2018-11-12T05:45:47.815Z,12.50
2018-11-12T05:48:16.313Z,12.50
2018-11-12T05:50:44.836Z,12.40
2018-11-12T05:53:13.393Z,12.40
2018-11-12T05:55:41.917Z,12.50
2018-11-12T05:58:10.405Z,12.50
2018-11-12T06:00:39.029Z,12.60
2018-11-12T06:03:07.482Z,12.60
2018-11-12T06:05:36.264Z,12.60
2018-11-12T06:08:04.852Z,12.50
2018-11-12T06:10:34.132Z,12.50
2018-11-12T06:13:02.661Z,12.50
2018-11-12T06:15:31.193Z,12.50
2018-11-12T06:17:59.717Z,12.50
2018-11-12T06:20:30.506Z,12.40
2018-11-12T06:22:59.227Z,12.40
2018-11-12T06:25:30.078Z,12.50
2018-11-12T06:27:58.970Z,12.50
2018-11-12T06:30:29.187Z,12.50
2018-11-12T06:32:57.741Z,12.50
2018-11-12T06:35:26.316Z,12.50
2018-11-12T06:37:55.107Z,12.60
2018-11-12T06:40:25.225Z,12.60
2018-11-12T06:42:53.861Z,12.60
2018-11-12T06:45:26.822Z,12.60
2018-11-12T06:47:56.149Z,12.60
2018-11-12T06:50:26.961Z,12.70
2018-11-12T06:52:55.566Z,12.70
2018-11-12T06:55:24.337Z,12.70
2018-11-12T06:57:53.991Z,12.70
2018-11-12T07:00:27.643Z,12.70
2018-11-12T07:02:56.159Z,12.70
2018-11-12T07:05:24.935Z,12.70
2018-11-12T07:07:53.570Z,12.70
2018-11-12T07:10:23.345Z,12.70
2018-11-12T07:12:52.715Z,12.70
2018-11-12T07:15:22.630Z,12.70
2018-11-12T07:17:51.225Z,12.70
2018-11-12T07:20:21.372Z,12.80
2018-11-12T07:22:50.316Z,12.80
2018-11-12T07:25:20.468Z,12.90
2018-11-12T07:27:48.919Z,12.90
2018-11-12T07:30:20.641Z,12.90
2018-11-12T07:32:50.008Z,12.90
2018-11-12T07:35:18.957Z,13.00
2018-11-12T07:37:48.853Z,12.90
2018-11-12T07:40:17.968Z,13.00
2018-11-12T07:42:46.643Z,13.00
2018-11-12T07:45:16.785Z,12.90
2018-11-12T07:47:46.334Z,13.00
2018-11-12T07:50:18.178Z,13.00
2018-11-12T07:52:46.826Z,13.10
2018-11-12T07:55:17.632Z,13.00
2018-11-12T07:57:47.158Z,13.00
2018-11-12T08:00:18.621Z,13.00
2018-11-12T08:02:48.047Z,13.00
2018-11-12T08:05:16.950Z,12.90
2018-11-12T08:07:45.684Z,13.00
2018-11-12T08:10:16.018Z,13.10
2018-11-12T08:12:45.005Z,13.10
2018-11-12T08:15:14.878Z,13.20
2018-11-12T08:17:43.792Z,13.30
2018-11-12T08:20:14.451Z,13.30
2018-11-12T08:22:43.866Z,13.20
2018-11-12T08:25:12.904Z,13.30
2018-11-12T08:27:42.162Z,13.30
2018-11-12T08:30:13.539Z,13.30
2018-11-12T08:32:42.686Z,13.30
2018-11-12T08:35:11.681Z,13.40
2018-11-12T08:37:41.600Z,13.40
2018-11-12T08:40:11.693Z,13.40
2018-11-12T08:42:40.771Z,13.40
2018-11-12T08:45:10.132Z,13.40
2018-11-12T08:47:40.255Z,13.50
2018-11-12T08:50:11.013Z,13.60
2018-11-12T08:52:40.159Z,13.60
2018-11-12T08:55:10.391Z,13.60
2018-11-12T08:57:39.107Z,13.70
2018-11-12T09:00:10.495Z,13.70
2018-11-12T09:02:39.300Z,13.70
2018-11-12T09:05:09.985Z,13.80
2018-11-12T09:07:39.658Z,13.70
2018-11-12T09:10:12.331Z,13.80
2018-11-12T09:12:41.433Z,13.90
2018-11-12T09:15:10.606Z,13.90
2018-11-12T09:17:40.147Z,14.00
2018-11-12T09:20:10.764Z,14.00
2018-11-12T09:22:39.273Z,14.10
2018-11-12T09:25:10.856Z,14.10
2018-11-12T09:27:39.437Z,14.10
2018-11-12T09:30:10.690Z,14.20
2018-11-12T09:32:39.794Z,14.20
2018-11-12T09:35:10.067Z,14.20
2018-11-12T09:37:39.105Z,14.20
2018-11-12T09:40:12.121Z,14.20
2018-11-12T09:42:40.886Z,14.20
2018-11-12T09:45:10.481Z,14.20
2018-11-12T09:47:39.064Z,14.20
2018-11-12T09:50:10.118Z,14.20
2018-11-12T09:52:39.170Z,14.20
2018-11-12T09:55:09.131Z,14.20
2018-11-12T09:57:38.277Z,14.20
2018-11-12T10:00:08.923Z,14.20
2018-11-12T10:02:39.120Z,14.20
2018-11-12T10:05:08.558Z,14.20
2018-11-12T10:07:38.331Z,14.20
2018-11-12T10:10:13.683Z,14.20
2018-11-12T10:12:42.434Z,14.20
2018-11-12T10:15:10.831Z,14.30
2018-11-12T10:17:40.382Z,14.30
2018-11-12T10:20:06.579Z,14.30
2018-11-12T10:22:35.241Z,14.20
2018-11-12T10:25:03.726Z,14.30
2018-11-12T10:27:32.295Z,14.20
2018-11-12T10:30:01.107Z,14.30
2018-11-12T10:32:29.605Z,14.30
2018-11-12T10:34:58.140Z,14.30
2018-11-12T10:37:26.660Z,14.20
2018-11-12T10:39:55.223Z,14.30
2018-11-12T10:42:23.717Z,14.30
2018-11-12T10:44:52.313Z,14.30
2018-11-12T10:47:22.125Z,14.30
2018-11-12T10:49:50.682Z,14.30
2018-11-12T10:52:19.229Z,14.30
2018-11-12T10:54:47.892Z,14.30
2018-11-12T10:57:16.309Z,14.30
2018-11-12T10:59:44.903Z,14.40
2018-11-12T11:02:18.653Z,14.30
2018-11-12T11:04:47.185Z,14.40
2018-11-12T11:07:15.687Z,14.40
2018-11-12T11:09:44.749Z,14.40
2018-11-12T11:12:13.325Z,14.40
2018-11-12T11:14:42.105Z,14.40
2018-11-12T11:17:10.683Z,14.50
2018-11-12T11:19:39.223Z,14.50
2018-11-12T11:22:07.778Z,14.50
2018-11-12T11:24:36.354Z,14.50
2018-11-12T11:27:05.181Z,14.50
2018-11-12T11:29:33.750Z,14.50
2018-11-12T11:32:02.296Z,14.60
2018-11-12T11:34:30.790Z,14.60
2018-11-12T11:36:59.262Z,14.60
2018-11-12T11:39:27.857Z,14.60
2018-11-12T11:41:56.681Z,14.60
2018-11-12T11:44:25.515Z,14.60
2018-11-12T11:46:54.329Z,14.60
2018-11-12T11:52:37.334Z,14.80
2018-11-12T11:55:08.033Z,14.90
2018-11-12T11:57:36.940Z,15.00
2018-11-12T12:00:11.273Z,15.10
2018-11-12T12:02:39.873Z,15.30
2018-11-12T12:05:09.868Z,15.40
2018-11-12T12:07:39.382Z,15.40
2018-11-12T12:10:08.933Z,15.50
2018-11-12T12:12:37.495Z,15.60
2018-11-12T12:15:08.048Z,15.70
2018-11-12T12:17:36.625Z,15.70
2018-11-12T12:20:07.101Z,15.80
2018-11-12T12:22:35.551Z,15.90
2018-11-12T12:25:04.691Z,16.00
2018-11-12T12:27:50.870Z,16.00
2018-11-12T12:30:24.212Z,15.90
2018-11-12T12:32:54.654Z,15.90
2018-11-12T12:35:23.192Z,15.90
2018-11-12T12:37:51.848Z,16.00
2018-11-12T12:40:21.504Z,16.10
2018-11-12T12:42:50.292Z,16.10
2018-11-12T12:45:20.618Z,16.10
2018-11-12T12:47:49.696Z,16.10
2018-11-12T12:50:19.357Z,16.00
2018-11-12T12:52:47.910Z,16.00
2018-11-12T12:55:17.174Z,16.00
2018-11-12T12:57:46.604Z,15.90
2018-11-12T13:00:21.475Z,15.90
2018-11-12T13:02:54.588Z,16.00
2018-11-12T13:05:24.191Z,16.00
2018-11-12T13:07:53.073Z,16.00
2018-11-12T13:10:22.731Z,16.10
2018-11-12T13:12:51.685Z,16.10
2018-11-12T13:15:20.782Z,16.20
2018-11-12T13:17:50.019Z,16.20
2018-11-12T13:20:20.135Z,16.20
2018-11-12T13:22:49.073Z,16.10
2018-11-12T13:25:18.532Z,16.00
2018-11-12T13:27:47.652Z,15.90
2018-11-12T13:30:23.771Z,15.90
2018-11-12T13:32:52.679Z,15.80
2018-11-12T13:35:25.535Z,15.90
2018-11-12T13:37:54.327Z,16.00
2018-11-12T13:40:23.921Z,16.00
2018-11-12T13:42:55.098Z,16.10
2018-11-12T13:45:33.198Z,16.20
2018-11-12T13:48:01.919Z,16.10
2018-11-12T13:50:31.217Z,16.10
2018-11-12T13:53:01.117Z,16.10
2018-11-12T13:55:29.587Z,16.20
2018-11-12T13:57:58.069Z,16.20
2018-11-12T14:00:28.792Z,16.20
2018-11-12T14:02:58.011Z,16.20
2018-11-12T14:05:27.379Z,16.20
2018-11-12T14:07:55.942Z,16.30
2018-11-12T14:10:26.031Z,16.40
2018-11-12T14:12:55.709Z,16.50
2018-11-12T14:15:24.619Z,16.50
2018-11-12T14:17:53.773Z,16.50
2018-11-12T14:20:22.827Z,16.40
2018-11-12T14:22:51.241Z,16.30
2018-11-12T14:25:20.701Z,16.20
2018-11-12T14:27:50.572Z,16.10
2018-11-12T14:30:21.486Z,16.00
2018-11-12T14:32:50.153Z,15.90
2018-11-12T14:35:18.675Z,15.90
2018-11-12T14:37:47.805Z,15.90
2018-11-12T14:40:17.321Z,15.90
2018-11-12T14:42:45.776Z,15.90
2018-11-12T14:45:21.496Z,15.90
2018-11-12T14:47:50.310Z,15.90
2018-11-12T14:50:19.053Z,15.80
2018-11-12T14:52:48.276Z,15.90
2018-11-12T14:55:18.007Z,15.90
2018-11-12T14:57:46.518Z,15.80
2018-11-12T15:00:17.365Z,15.70
2018-11-12T15:02:45.826Z,15.70
2018-11-12T15:05:14.966Z,15.70
2018-11-12T15:07:43.756Z,15.60
2018-11-12T15:10:13.539Z,15.60
2018-11-12T15:12:43.028Z,15.60
2018-11-12T15:15:12.261Z,15.60
2018-11-12T15:17:40.825Z,15.60
2018-11-12T15:20:11.971Z,15.60
2018-11-12T15:22:40.647Z,15.50
2018-11-12T15:25:14.845Z,15.50
2018-11-12T15:27:43.694Z,15.50
2018-11-12T15:30:14.885Z,15.50
2018-11-12T15:32:44.315Z,15.50
2018-11-12T15:35:13.302Z,15.50
2018-11-12T15:37:42.501Z,15.40
2018-11-12T15:40:11.839Z,15.40
2018-11-12T15:42:40.794Z,15.40
2018-11-12T15:45:11.505Z,15.30
2018-11-12T15:47:40.219Z,15.20
2018-11-12T15:50:14.222Z,15.20
2018-11-12T15:52:43.297Z,15.20
2018-11-12T15:55:12.290Z,15.10
2018-11-12T15:57:41.124Z,15.10
2018-11-12T16:00:13.253Z,15.10
2018-11-12T16:02:41.809Z,15.00
2018-11-12T16:05:11.240Z,15.10
2018-11-12T16:07:39.730Z,15.10
2018-11-12T16:10:12.630Z,15.10
2018-11-12T16:12:41.509Z,15.10
2018-11-12T16:15:11.212Z,15.20
2018-11-12T16:17:40.192Z,15.20
2018-11-12T16:25:09.973Z,15.10
2018-11-12T16:27:40.106Z,15.00
2018-11-12T16:30:09.993Z,15.00
2018-11-12T16:32:39.610Z,15.00
2018-11-12T16:35:10.633Z,15.00
2018-11-12T16:37:39.190Z,15.00
2018-11-12T16:40:08.471Z,15.00
2018-11-12T16:42:37.407Z,14.90
2018-11-12T16:45:06.055Z,14.80
2018-11-12T16:47:34.513Z,14.80
2018-11-12T16:50:03.057Z,14.80
2018-11-12T16:52:32.590Z,14.80
2018-11-12T16:55:01.122Z,14.90
2018-11-12T16:57:29.658Z,14.80
2018-11-12T16:59:58.173Z,14.80
2018-11-12T17:02:26.746Z,14.80
2018-11-12T17:04:56.735Z,14.80
2018-11-12T17:07:27.889Z,14.80
2018-11-12T17:09:56.535Z,14.80
2018-11-12T17:12:25.825Z,14.80
2018-11-12T17:14:57.195Z,14.80
2018-11-12T17:17:25.784Z,14.80
2018-11-12T17:19:54.407Z,14.80
2018-11-12T17:22:24.219Z,14.80
2018-11-12T17:24:52.975Z,14.80
2018-11-12T17:27:21.563Z,14.80
2018-11-12T17:29:51.196Z,14.80
2018-11-12T17:32:20.323Z,14.80
2018-11-12T17:34:48.940Z,14.70
2018-11-12T17:37:17.609Z,14.70
2018-11-12T17:39:49.390Z,14.70
2018-11-12T17:42:17.929Z,14.70
2018-11-12T17:44:46.513Z,14.70
2018-11-12T17:47:15.062Z,14.60
2018-11-12T17:49:43.619Z,14.60
2018-11-12T17:52:12.187Z,14.60
2018-11-12T17:54:41.258Z,14.60
2018-11-12T17:57:09.793Z,14.50
2018-11-12T17:59:38.258Z,14.50
2018-11-12T18:02:06.880Z,14.50
2018-11-12T18:04:35.563Z,14.50
2018-11-12T18:07:04.373Z,14.50
2018-11-12T18:09:33.009Z,14.50
2018-11-12T18:12:01.615Z,14.50
2018-11-12T18:14:30.330Z,14.50
2018-11-12T18:16:58.811Z,14.40
2018-11-12T18:19:27.374Z,14.40
2018-11-12T18:21:56.324Z,14.40
2018-11-12T18:24:25.797Z,14.40
2018-11-12T18:26:54.305Z,14.40
2018-11-12T18:29:22.825Z,14.40
2018-11-12T18:31:51.434Z,14.40
2018-11-12T18:34:20.482Z,14.40
2018-11-12T18:36:48.985Z,14.40
2018-11-12T18:39:17.567Z,14.40
2018-11-12T18:41:46.146Z,14.40
2018-11-12T18:44:15.261Z,14.40
2018-11-12T18:46:43.752Z,14.40
2018-11-12T18:49:12.433Z,14.40
2018-11-12T18:51:41.157Z,14.40
2018-11-12T18:54:09.916Z,14.40
2018-11-12T18:56:38.455Z,14.40
2018-11-12T18:59:07.748Z,14.40
2018-11-12T19:01:36.353Z,14.40
2018-11-12T19:04:05.050Z,14.40
2018-11-12T19:09:20.725Z,14.40
2018-11-12T19:11:49.376Z,14.40
2018-11-12T19:14:17.979Z,14.30
2018-11-12T19:16:46.427Z,14.30
2018-11-12T19:19:14.932Z,14.30
2018-11-12T19:21:44.046Z,14.30
2018-11-12T19:24:12.758Z,14.30
2018-11-12T19:26:42.278Z,14.30
2018-11-12T19:29:11.015Z,14.40
2018-11-12T19:31:39.659Z,14.40
2018-11-12T19:34:08.316Z,14.30
2018-11-12T19:36:37.175Z,14.40
2018-11-12T19:39:07.254Z,14.30
2018-11-12T19:41:36.514Z,14.30
2018-11-12T19:44:05.294Z,14.30
2018-11-12T19:46:34.211Z,14.30
2018-11-12T19:49:02.851Z,14.30
2018-11-12T19:51:31.869Z,14.30
2018-11-12T19:56:45.195Z,14.30
2018-11-12T19:59:14.526Z,14.30
2018-11-12T20:01:43.194Z,14.30
2018-11-12T20:04:11.747Z,14.20
2018-11-12T20:06:40.583Z,14.20
2018-11-12T20:09:09.805Z,14.20
2018-11-12T20:11:38.463Z,14.20
2018-11-12T20:14:07.123Z,14.20
2018-11-12T20:16:36.030Z,14.20
2018-11-12T20:19:04.622Z,14.10
2018-11-12T20:21:33.200Z,14.10
2018-11-12T20:24:01.755Z,14.10
2018-11-12T20:26:30.312Z,14.10
2018-11-12T20:28:58.854Z,14.10
2018-11-12T20:31:27.533Z,14.10
2018-11-12T20:33:56.159Z,14.00
2018-11-12T20:36:24.719Z,14.10
2018-11-12T20:38:53.451Z,14.10
2018-11-12T20:41:22.017Z,14.20
2018-11-12T20:43:51.381Z,14.30
2018-11-12T20:46:19.968Z,14.40
2018-11-12T20:48:48.547Z,14.30
2018-11-12T20:51:17.094Z,14.30
2018-11-12T20:53:45.760Z,14.30
2018-11-12T20:56:14.287Z,14.20
2018-11-12T20:58:42.884Z,14.20
2018-11-12T21:01:11.477Z,14.20
2018-11-12T21:03:40.124Z,14.20
2018-11-12T21:06:08.679Z,14.20
2018-11-12T21:08:37.933Z,14.20
2018-11-12T21:11:06.470Z,14.20
2018-11-12T21:13:34.949Z,14.20
2018-11-12T21:16:03.537Z,14.20
2018-11-12T21:18:32.061Z,14.20
2018-11-12T21:21:00.768Z,14.20
2018-11-12T21:23:30.043Z,14.30
2018-11-12T21:25:58.540Z,14.20
2018-11-12T21:28:27.093Z,14.20
2018-11-12T21:30:55.646Z,14.20
2018-11-12T21:33:24.120Z,14.20
2018-11-12T21:35:52.618Z,14.20
2018-11-12T21:38:21.375Z,14.20
2018-11-12T21:40:49.906Z,14.20
2018-11-12T21:43:18.759Z,14.20
2018-11-12T21:45:47.201Z,14.20
2018-11-12T21:48:15.713Z,14.20
2018-11-12T21:50:44.288Z,14.20
2018-11-12T21:53:12.824Z,14.20
2018-11-12T21:55:41.338Z,14.20
2018-11-12T21:58:16.722Z,14.20
2018-11-12T22:00:45.789Z,14.30
2018-11-12T22:03:21.039Z,14.30
2018-11-12T22:05:49.666Z,14.30
2018-11-12T22:08:18.368Z,14.30
2018-11-12T22:10:46.896Z,14.30
2018-11-12T22:13:15.385Z,14.30
2018-11-12T22:15:44.082Z,14.20
2018-11-12T22:18:12.638Z,14.20
2018-11-12T22:20:42.331Z,14.20
2018-11-12T22:23:12.051Z,14.20
2018-11-12T22:25:40.637Z,14.20
2018-11-12T22:28:09.252Z,14.20
2018-11-12T22:30:37.753Z,14.20
2018-11-12T22:33:06.618Z,14.20
2018-11-12T22:35:35.124Z,14.20
2018-11-12T22:38:03.671Z,14.30
2018-11-12T22:40:32.182Z,14.30
2018-11-12T22:43:00.638Z,14.30
2018-11-12T22:45:30.517Z,14.30
2018-11-12T22:47:59.049Z,14.20
2018-11-12T22:50:28.086Z,14.20
2018-11-12T22:52:57.961Z,14.20
2018-11-12T22:55:27.667Z,14.20
2018-11-12T22:58:04.166Z,14.20
2018-11-12T23:00:38.054Z,14.10
2018-11-12T23:03:09.945Z,14.10
2018-11-12T23:05:41.787Z,14.10
2018-11-12T23:08:11.657Z,14.10
2018-11-12T23:10:41.336Z,14.20
2018-11-12T23:13:09.978Z,14.20
2018-11-12T23:15:39.626Z,14.20
2018-11-12T23:18:10.027Z,14.20
2018-11-12T23:20:38.551Z,14.20
2018-11-12T23:23:07.299Z,14.20
2018-11-12T23:25:35.901Z,14.30
2018-11-12T23:28:04.824Z,14.30
2018-11-12T23:30:33.425Z,14.30
2018-11-12T23:33:01.911Z,14.30
2018-11-12T23:35:30.522Z,14.30
2018-11-12T23:37:59.275Z,14.30
2018-11-12T23:40:27.803Z,14.40
2018-11-12T23:42:56.340Z,14.40
2018-11-12T23:45:25.402Z,14.40
2018-11-12T23:48:00.645Z,14.40
2018-11-12T23:50:29.177Z,14.40
2018-11-12T23:52:57.729Z,14.30
2018-11-12T23:55:26.265Z,14.40
2018-11-12T23:57:54.778Z,14.40
